Airport ID:KE16
Update Time (UTC):17 FEB 19 12:15
Wind Speed (Knots):4
Wind Direction (Magnetic):120
Temperature (°C):4
Dew Point (°C):4
Humidity (%):97
Altimeter (inHg):30.08
Density Altitude (Feet):
Visibility (Miles):9
Clouds (Hundreds of feet):OVC031
Present Weather:
METAR:METAR KE16 171215Z AUTO 13004KT 9SM OVC031 04/04 A3008 RMK AO2 PWINO PNO

The data displayed is for advisory purposes only and is not to be used for flight planning or operations.

This page is not automatically refreshed. Reload the page to see current data.